Time;durP1;ratioP1;P1;durP2;ratioP2;P2;SDS_P1;SDS_P2;PMS_P1;PMS_P2;Temp;Humidity;BMP_temperature;BMP_pressure;BME280_temperature;BME280_humidity;BME280_pressure;Samples;Min_cycle;Max_cycle;Signal;HPM_P1;HPM_P2
2022/02/05 00:00:14;;;;;;;41.08;24.52;;;;;;;;;;511311;28;1827;-75
2022/02/05 00:00:40;;;;;;;42.55;24.25;;;;;;;;;;515127;28;1112;-75
2022/02/05 00:01:04;;;;;;;33.75;19.48;;;;;;;;;;515566;28;880;-76
2022/02/05 00:01:54;;;;;;;45.55;27.38;;;;;;;;;;515495;28;891;-76
2022/02/05 00:02:08;;;;;;;44.83;27.75;;;;;;;;;;510921;28;1188;-75
2022/02/05 00:02:28;;;;;;;63.03;36.47;;;;;;;;;;514941;28;2130;-75
2022/02/05 00:02:50;;;;;;;69.82;41.08;;;;;;;;;;514915;28;1438;-76
2022/02/05 00:03:44;;;;;;;30.23;17.58;;;;;;;;;;513019;28;1257;-76
2022/02/05 00:03:56;;;;;;;67.72;38.38;;;;;;;;;;511955;28;1178;-76
2022/02/05 00:04:14;;;;;;;73.15;41.20;;;;;;;;;;511291;29;1459;-76
2022/02/05 00:04:31;;;;;;;61.42;33.75;;;;;;;;;;511191;29;762;-76
2022/02/05 00:04:48;;;;;;;49.42;27.92;;;;;;;;;;513100;28;821;-76
2022/02/05 00:05:04;;;;;;;52.65;30.40;;;;;;;;;;514163;28;813;-76
2022/02/05 00:05:25;;;;;;;45.42;26.90;;;;;;;;;;512917;28;1481;-76
2022/02/05 00:06:02;;;;;;;47.63;28.25;;;;;;;;;;510495;28;773;-76
2022/02/05 00:06:21;;;;;;;37.53;21.70;;;;;;;;;;512569;28;895;-76
2022/02/05 00:06:40;;;;;;;23.83;13.05;;;;;;;;;;513037;28;1256;-76
2022/02/05 00:06:56;;;;;;;22.52;11.93;;;;;;;;;;511083;28;1320;-76
2022/02/05 00:07:12;;;;;;;49.63;25.53;;;;;;;;;;509975;29;1241;-76
2022/02/05 00:07:30;;;;;;;58.92;31.88;;;;;;;;;;511314;29;1380;-76
2022/02/05 00:07:55;;;;;;;38.15;22.02;;;;;;;;;;511149;29;814;-76
2022/02/05 00:09:20;;;;;;;42.00;27.47;;;;;;;;;;515526;28;896;-76
2022/02/05 00:10:35;;;;;;;18.52;11.80;;;;;;;;;;514655;28;671;-76
2022/02/05 00:11:59;;;;;;;10.38;4.47;;;;;;;;;;515748;28;761;-76
2022/02/05 00:12:57;;;;;;;17.45;10.32;;;;;;;;;;513794;28;741;-76
2022/02/05 00:15:48;;;;;;;22.90;14.27;;;;;;;;;;513296;28;653;-76
2022/02/05 00:38:52;;;;;;;10.45;5.15;;;;;;;;;;515335;28;1454;-75
2022/02/05 00:39:47;;;;;;;8.23;4.23;;;;;;;;;;513259;28;900;-75
2022/02/05 00:40:06;;;;;;;8.73;4.05;;;;;;;;;;512986;28;1079;-75
2022/02/05 00:41:11;;;;;;;9.27;3.53;;;;;;;;;;511588;28;714;-76
2022/02/05 00:41:34;;;;;;;8.20;3.28;;;;;;;;;;512939;28;739;-76
2022/02/05 00:42:09;;;;;;;5.90;3.10;;;;;;;;;;514593;28;813;-76
2022/02/05 00:42:46;;;;;;;5.28;3.05;;;;;;;;;;515406;28;745;-76
2022/02/05 00:43:00;;;;;;;8.48;3.58;;;;;;;;;;514717;28;1060;-76
2022/02/05 00:43:17;;;;;;;10.03;3.50;;;;;;;;;;515179;28;1153;-74
2022/02/05 00:43:32;;;;;;;8.40;3.17;;;;;;;;;;515009;28;722;-75
2022/02/05 00:44:01;;;;;;;6.90;3.33;;;;;;;;;;515421;28;803;-75
2022/02/05 00:44:16;;;;;;;8.95;3.50;;;;;;;;;;515339;28;789;-75
2022/02/05 00:44:31;;;;;;;9.43;3.73;;;;;;;;;;514946;28;1565;-75
2022/02/05 00:44:47;;;;;;;8.80;4.20;;;;;;;;;;515376;28;745;-75
2022/02/05 00:45:06;;;;;;;7.07;4.38;;;;;;;;;;514847;28;1234;-75
2022/02/05 00:45:22;;;;;;;8.07;3.92;;;;;;;;;;515397;28;869;-75
2022/02/05 00:45:41;;;;;;;7.80;3.63;;;;;;;;;;514980;28;813;-75
2022/02/05 00:45:57;;;;;;;6.95;3.53;;;;;;;;;;515521;28;917;-75
2022/02/05 00:46:14;;;;;;;8.52;3.60;;;;;;;;;;515264;28;780;-75
2022/02/05 00:46:35;;;;;;;9.10;3.90;;;;;;;;;;515582;28;731;-75
2022/02/05 00:46:51;;;;;;;8.50;3.80;;;;;;;;;;513622;28;864;-75
2022/02/05 00:47:07;;;;;;;8.07;3.65;;;;;;;;;;513286;28;1406;-75
2022/02/05 00:47:22;;;;;;;8.23;3.57;;;;;;;;;;513579;28;663;-75
2022/02/05 00:47:42;;;;;;;8.15;3.38;;;;;;;;;;513123;28;1112;-76
2022/02/05 00:48:00;;;;;;;8.10;3.20;;;;;;;;;;511113;29;1386;-75
2022/02/05 00:48:16;;;;;;;9.60;3.72;;;;;;;;;;509329;29;1969;-75
2022/02/05 00:48:31;;;;;;;10.45;4.18;;;;;;;;;;509448;29;861;-75
2022/02/05 00:48:48;;;;;;;8.80;4.10;;;;;;;;;;509256;29;922;-75
2022/02/05 00:49:03;;;;;;;8.52;3.97;;;;;;;;;;507056;29;1265;-75
2022/02/05 00:49:19;;;;;;;8.95;3.90;;;;;;;;;;507823;29;895;-76
2022/02/05 00:49:34;;;;;;;8.33;3.80;;;;;;;;;;510268;29;1279;-75
2022/02/05 00:49:56;;;;;;;7.93;3.77;;;;;;;;;;511605;28;761;-75
2022/02/05 00:50:21;;;;;;;6.85;3.35;;;;;;;;;;512057;28;1414;-75
2022/02/05 00:50:40;;;;;;;8.23;3.22;;;;;;;;;;513518;28;848;-76
2022/02/05 00:51:08;;;;;;;9.00;3.65;;;;;;;;;;509198;29;1465;-76
2022/02/05 00:51:48;;;;;;;7.03;3.70;;;;;;;;;;511818;29;871;-76
2022/02/05 00:52:10;;;;;;;7.70;3.53;;;;;;;;;;510101;29;1406;-76
2022/02/05 00:52:26;;;;;;;8.38;3.70;;;;;;;;;;511250;29;1374;-76
2022/02/05 00:52:45;;;;;;;8.05;3.65;;;;;;;;;;511592;28;1260;-76
2022/02/05 00:53:05;;;;;;;8.07;3.50;;;;;;;;;;513397;28;801;-75
2022/02/05 00:53:34;;;;;;;10.32;3.85;;;;;;;;;;513561;28;901;-76
2022/02/05 00:54:00;;;;;;;9.50;3.83;;;;;;;;;;513123;28;777;-76
2022/02/05 00:54:19;;;;;;;7.32;3.70;;;;;;;;;;511972;28;1413;-76
2022/02/05 00:54:34;;;;;;;7.60;3.67;;;;;;;;;;513359;28;801;-76
2022/02/05 00:54:53;;;;;;;9.03;4.27;;;;;;;;;;513562;28;793;-76
2022/02/05 00:55:11;;;;;;;9.15;4.45;;;;;;;;;;510969;28;1472;-76
2022/02/05 00:55:32;;;;;;;8.55;4.10;;;;;;;;;;511672;29;797;-76
2022/02/05 00:55:54;;;;;;;9.23;3.80;;;;;;;;;;511382;29;715;-76
2022/02/05 00:56:23;;;;;;;7.50;3.67;;;;;;;;;;510317;29;1261;-76
2022/02/05 00:58:02;;;;;;;7.32;4.30;;;;;;;;;;506821;29;1364;-76
2022/02/05 00:58:06;;;;;;;9.25;4.10;;;;;;;;;;513744;28;871;-76
2022/02/05 00:58:17;;;;;;;8.95;4.50;;;;;;;;;;511308;28;1253;-76
2022/02/05 00:58:37;;;;;;;7.97;4.37;;;;;;;;;;513632;28;845;-76
2022/02/05 00:58:53;;;;;;;8.10;3.90;;;;;;;;;;513652;28;777;-76
2022/02/05 00:59:08;;;;;;;9.53;4.43;;;;;;;;;;513687;28;940;-76
2022/02/05 00:59:23;;;;;;;9.00;4.30;;;;;;;;;;513796;28;932;-76
2022/02/05 00:59:38;;;;;;;8.77;5.00;;;;;;;;;;513336;28;979;-76
2022/02/05 00:59:54;;;;;;;10.23;6.82;;;;;;;;;;513523;28;781;-76
2022/02/05 01:00:10;;;;;;;10.20;6.80;;;;;;;;;;514678;28;1390;-76
2022/02/05 01:00:25;;;;;;;9.77;5.65;;;;;;;;;;515012;28;1034;-76
2022/02/05 01:00:40;;;;;;;8.37;4.50;;;;;;;;;;515616;28;809;-76
2022/02/05 01:00:56;;;;;;;8.00;4.00;;;;;;;;;;513699;28;1137;-76
2022/02/05 01:01:11;;;;;;;9.23;4.27;;;;;;;;;;513683;28;793;-76
2022/02/05 01:01:27;;;;;;;9.03;4.40;;;;;;;;;;513913;28;1372;-76
2022/02/05 01:01:43;;;;;;;8.10;3.97;;;;;;;;;;514302;28;1465;-76
2022/02/05 01:01:58;;;;;;;8.10;4.60;;;;;;;;;;514718;28;1478;-76
2022/02/05 01:02:13;;;;;;;9.70;5.30;;;;;;;;;;515397;28;912;-76
2022/02/05 01:02:28;;;;;;;10.80;4.57;;;;;;;;;;513242;28;1352;-76
2022/02/05 01:02:44;;;;;;;10.47;5.43;;;;;;;;;;513842;28;928;-76
2022/02/05 01:03:00;;;;;;;9.93;5.78;;;;;;;;;;514701;28;1135;-76
2022/02/05 01:03:16;;;;;;;10.73;6.05;;;;;;;;;;513392;28;892;-76
2022/02/05 01:03:31;;;;;;;11.27;6.73;;;;;;;;;;513250;28;1146;-76
2022/02/05 01:03:46;;;;;;;10.25;6.28;;;;;;;;;;513041;28;923;-76
2022/02/05 01:04:03;;;;;;;9.27;5.47;;;;;;;;;;511176;29;1194;-76
2022/02/05 01:04:19;;;;;;;8.38;4.35;;;;;;;;;;510845;29;1333;-76
2022/02/05 01:04:34;;;;;;;8.00;3.63;;;;;;;;;;510809;29;1174;-76
2022/02/05 01:04:49;;;;;;;7.82;3.35;;;;;;;;;;509327;29;1202;-76
2022/02/05 01:05:05;;;;;;;8.37;4.33;;;;;;;;;;508999;29;960;-77
2022/02/05 01:05:20;;;;;;;10.38;6.80;;;;;;;;;;507614;29;1158;-76
2022/02/05 01:05:36;;;;;;;12.00;7.20;;;;;;;;;;507498;29;841;-77
2022/02/05 01:05:52;;;;;;;10.50;5.53;;;;;;;;;;507126;29;699;-76
2022/02/05 01:06:08;;;;;;;8.77;4.43;;;;;;;;;;507670;29;1194;-77
2022/02/05 01:06:23;;;;;;;7.63;4.00;;;;;;;;;;509411;29;860;-77
2022/02/05 01:06:39;;;;;;;7.67;4.03;;;;;;;;;;511514;28;726;-76
2022/02/05 01:06:56;;;;;;;9.20;4.30;;;;;;;;;;513523;28;821;-76
2022/02/05 01:07:11;;;;;;;10.13;4.75;;;;;;;;;;511994;28;1221;-77
2022/02/05 01:07:27;;;;;;;11.40;6.07;;;;;;;;;;513079;28;1003;-77
2022/02/05 01:07:42;;;;;;;12.38;7.05;;;;;;;;;;511393;29;1166;-77
2022/02/05 01:07:57;;;;;;;10.67;5.80;;;;;;;;;;511359;29;758;-76
2022/02/05 01:08:14;;;;;;;9.07;5.03;;;;;;;;;;511341;29;1907;-77
2022/02/05 01:08:31;;;;;;;9.75;5.20;;;;;;;;;;510640;29;1544;-76
2022/02/05 01:08:47;;;;;;;10.25;4.75;;;;;;;;;;511239;29;1363;-76
2022/02/05 01:09:07;;;;;;;10.55;4.10;;;;;;;;;;512078;28;714;-77
2022/02/05 01:09:25;;;;;;;9.70;3.80;;;;;;;;;;513302;28;758;-76
2022/02/05 01:09:44;;;;;;;8.75;3.63;;;;;;;;;;513175;28;1073;-76
2022/02/05 01:09:59;;;;;;;8.57;4.88;;;;;;;;;;512791;28;829;-76
2022/02/05 01:10:15;;;;;;;11.60;6.20;;;;;;;;;;512741;28;1254;-76
2022/02/05 01:10:31;;;;;;;13.13;7.38;;;;;;;;;;513287;28;702;-76
2022/02/05 01:10:46;;;;;;;14.47;8.67;;;;;;;;;;511342;29;1221;-76
2022/02/05 01:11:02;;;;;;;14.77;8.47;;;;;;;;;;511590;29;750;-76
2022/02/05 01:11:17;;;;;;;13.60;8.15;;;;;;;;;;511426;29;1008;-76
2022/02/05 01:11:33;;;;;;;12.63;7.50;;;;;;;;;;511582;29;729;-77
2022/02/05 01:11:49;;;;;;;13.82;7.65;;;;;;;;;;512824;28;853;-76
2022/02/05 01:12:05;;;;;;;15.38;8.25;;;;;;;;;;512142;28;818;-76
2022/02/05 01:12:20;;;;;;;13.75;7.40;;;;;;;;;;513540;28;789;-76
2022/02/05 01:12:39;;;;;;;12.37;6.90;;;;;;;;;;511120;29;1177;-76
2022/02/05 01:13:02;;;;;;;10.57;5.70;;;;;;;;;;511207;29;856;-76
2022/02/05 01:13:18;;;;;;;9.88;4.80;;;;;;;;;;509520;29;1380;-76
2022/02/05 01:13:34;;;;;;;8.67;3.87;;;;;;;;;;509456;29;809;-76
2022/02/05 01:13:51;;;;;;;9.25;3.78;;;;;;;;;;509555;29;762;-77
2022/02/05 01:14:09;;;;;;;8.63;4.00;;;;;;;;;;511593;29;849;-77
2022/02/05 01:14:30;;;;;;;9.48;4.50;;;;;;;;;;511908;28;1047;-76
2022/02/05 01:14:51;;;;;;;8.63;4.05;;;;;;;;;;510964;29;1344;-76
2022/02/05 01:15:07;;;;;;;8.27;4.50;;;;;;;;;;511219;28;821;-76
2022/02/05 01:15:30;;;;;;;8.68;4.40;;;;;;;;;;513491;28;797;-76
2022/02/05 01:15:55;;;;;;;8.98;3.97;;;;;;;;;;513332;28;849;-76
2022/02/05 01:16:28;;;;;;;8.95;3.92;;;;;;;;;;513694;28;848;-76
2022/02/05 01:17:04;;;;;;;7.55;3.60;;;;;;;;;;513211;28;692;-76
2022/02/05 01:17:27;;;;;;;8.52;3.83;;;;;;;;;;513423;28;817;-77
2022/02/05 01:17:48;;;;;;;8.20;4.00;;;;;;;;;;512947;28;1343;-76
2022/02/05 01:18:07;;;;;;;8.25;3.75;;;;;;;;;;513280;28;777;-76
2022/02/05 01:18:24;;;;;;;8.35;3.60;;;;;;;;;;513204;28;753;-76
2022/02/05 01:18:42;;;;;;;7.72;3.55;;;;;;;;;;513360;28;804;-76
2022/02/05 01:18:57;;;;;;;6.13;3.40;;;;;;;;;;510595;29;1253;-76
2022/02/05 01:19:30;;;;;;;7.10;3.63;;;;;;;;;;511603;28;1427;-76
2022/02/05 01:20:24;;;;;;;;;;;;;;;;;;;;;
2022/02/05 01:20:49;;;;;;;6.18;3.10;;;;;;;;;;513402;28;1115;-76
2022/02/05 01:21:33;;;;;;;6.97;3.10;;;;;;;;;;512434;28;866;-76
2022/02/05 01:21:53;;;;;;;5.93;2.97;;;;;;;;;;514597;28;834;-76
2022/02/05 01:22:10;;;;;;;8.63;3.58;;;;;;;;;;515364;28;2867;-77
2022/02/05 01:22:26;;;;;;;9.52;3.67;;;;;;;;;;515247;28;751;-76
2022/02/05 01:22:43;;;;;;;7.80;3.27;;;;;;;;;;515314;28;1181;-76
2022/02/05 01:23:03;;;;;;;8.05;3.45;;;;;;;;;;515151;28;718;-76
2022/02/05 01:23:25;;;;;;;7.30;3.50;;;;;;;;;;515043;28;734;-76
2022/02/05 01:23:49;;;;;;;7.38;3.22;;;;;;;;;;515235;28;920;-76
2022/02/05 01:24:08;;;;;;;8.55;3.70;;;;;;;;;;513269;28;1423;-76
2022/02/05 01:24:24;;;;;;;7.63;3.28;;;;;;;;;;511339;28;1356;-76
2022/02/05 01:24:41;;;;;;;7.07;3.15;;;;;;;;;;510724;29;1420;-76
2022/02/05 01:24:57;;;;;;;7.53;3.17;;;;;;;;;;510969;29;1313;-76
2022/02/05 01:25:15;;;;;;;7.73;3.13;;;;;;;;;;510785;29;711;-76
2022/02/05 01:25:36;;;;;;;6.70;3.17;;;;;;;;;;511494;29;678;-76
2022/02/05 01:26:00;;;;;;;7.38;3.40;;;;;;;;;;511262;29;789;-76
2022/02/05 01:26:31;;;;;;;7.57;3.35;;;;;;;;;;512374;28;824;-76
2022/02/05 01:26:53;;;;;;;6.70;3.20;;;;;;;;;;513727;28;788;-76
2022/02/05 01:27:14;;;;;;;7.35;3.30;;;;;;;;;;513515;28;726;-76
2022/02/05 01:27:56;;;;;;;6.13;3.50;;;;;;;;;;514496;28;1100;-76
2022/02/05 01:28:19;;;;;;;7.88;3.50;;;;;;;;;;515554;28;1922;-76
2022/02/05 01:28:35;;;;;;;8.35;3.28;;;;;;;;;;515617;28;899;-76
2022/02/05 01:28:57;;;;;;;6.80;3.10;;;;;;;;;;515540;28;1363;-77
2022/02/05 01:29:42;;;;;;;7.45;3.60;;;;;;;;;;515568;28;1588;-76
2022/02/05 01:30:19;;;;;;;6.28;3.05;;;;;;;;;;515114;28;868;-76
2022/02/05 01:30:38;;;;;;;8.05;3.72;;;;;;;;;;515357;28;758;-76
2022/02/05 01:30:55;;;;;;;6.90;3.55;;;;;;;;;;515363;28;1287;-76
2022/02/05 01:31:11;;;;;;;5.72;3.17;;;;;;;;;;515370;28;808;-76
2022/02/05 01:31:32;;;;;;;5.90;3.00;;;;;;;;;;512847;28;1279;-76
2022/02/05 01:31:49;;;;;;;7.80;3.20;;;;;;;;;;513468;28;777;-76
2022/02/05 01:32:09;;;;;;;7.40;3.30;;;;;;;;;;514060;28;1125;-76
2022/02/05 01:32:28;;;;;;;8.40;3.35;;;;;;;;;;515249;28;1181;-76
2022/02/05 01:32:52;;;;;;;6.90;3.13;;;;;;;;;;511090;29;1356;-76
2022/02/05 01:34:23;;;;;;;5.95;2.70;;;;;;;;;;513163;28;671;-76
2022/02/05 01:35:05;;;;;;;6.27;2.97;;;;;;;;;;513465;28;715;-76
2022/02/05 01:35:48;;;;;;;9.02;3.22;;;;;;;;;;513789;28;974;-76
2022/02/05 01:53:03;;;;;;;7.63;3.30;;;;;;;;;;509185;29;821;-74
2022/02/05 01:54:38;;;;;;;7.70;3.45;;;;;;;;;;513187;28;726;-74
2022/02/05 01:55:17;;;;;;;7.50;3.60;;;;;;;;;;512951;28;899;-75
2022/02/05 01:56:55;;;;;;;7.70;3.33;;;;;;;;;;513704;28;714;-74
2022/02/05 01:57:34;;;;;;;9.05;3.70;;;;;;;;;;513541;28;1381;-75
2022/02/05 01:58:41;;;;;;;8.00;3.63;;;;;;;;;;511103;29;674;-75
2022/02/05 01:59:53;;;;;;;7.77;3.60;;;;;;;;;;513438;28;967;-74
2022/02/05 02:05:04;;;;;;;6.78;3.40;;;;;;;;;;512744;28;683;-75
2022/02/05 02:05:28;;;;;;;6.60;3.30;;;;;;;;;;513591;28;848;-75
2022/02/05 02:05:53;;;;;;;8.07;3.45;;;;;;;;;;513135;28;816;-75
2022/02/05 02:06:28;;;;;;;8.32;3.55;;;;;;;;;;513252;28;1438;-75
2022/02/05 02:10:15;;;;;;;8.55;3.40;;;;;;;;;;513318;28;1012;-75
2022/02/05 02:11:23;;;;;;;7.55;3.47;;;;;;;;;;513586;28;654;-75
2022/02/05 02:12:08;;;;;;;8.57;3.20;;;;;;;;;;513462;28;747;-75
2022/02/05 02:12:26;;;;;;;6.78;3.38;;;;;;;;;;513278;28;825;-75
2022/02/05 02:12:51;;;;;;;8.32;3.42;;;;;;;;;;513266;28;828;-75
2022/02/05 02:15:12;;;;;;;7.13;3.22;;;;;;;;;;513324;28;653;-75
2022/02/05 02:15:25;;;;;;;7.68;3.35;;;;;;;;;;510557;28;1138;-75
2022/02/05 02:15:49;;;;;;;8.18;3.60;;;;;;;;;;513379;28;876;-75
2022/02/05 02:18:44;;;;;;;8.68;3.67;;;;;;;;;;513661;28;653;-74
2022/02/05 02:19:15;;;;;;;7.75;3.60;;;;;;;;;;512767;28;904;-75
2022/02/05 02:20:31;;;;;;;9.27;3.63;;;;;;;;;;515397;28;770;-77
2022/02/05 02:21:52;;;;;;;8.65;3.47;;;;;;;;;;515084;28;710;-75
2022/02/05 02:22:27;;;;;;;9.80;3.67;;;;;;;;;;515001;28;2744;-74
2022/02/05 02:22:55;;;;;;;9.50;3.55;;;;;;;;;;515466;28;891;-75
2022/02/05 02:24:04;;;;;;;9.20;3.60;;;;;;;;;;515044;28;1855;-75
2022/02/05 02:24:40;;;;;;;7.85;3.65;;;;;;;;;;509156;29;846;-75
2022/02/05 02:25:09;;;;;;;6.20;3.40;;;;;;;;;;512816;28;1052;-75
2022/02/05 02:26:28;;;;;;;6.57;3.20;;;;;;;;;;512155;28;863;-74
2022/02/05 02:27:43;;;;;;;8.13;3.42;;;;;;;;;;515604;28;843;-75
2022/02/05 02:28:09;;;;;;;8.50;3.72;;;;;;;;;;513575;28;829;-75
2022/02/05 02:28:39;;;;;;;7.40;3.45;;;;;;;;;;513330;28;1902;-75
2022/02/05 02:29:06;;;;;;;7.20;3.40;;;;;;;;;;513494;28;816;-76
2022/02/05 02:29:38;;;;;;;8.50;3.83;;;;;;;;;;513627;28;880;-75
2022/02/05 02:30:10;;;;;;;8.05;3.97;;;;;;;;;;510941;29;1349;-75
2022/02/05 02:30:29;;;;;;;7.93;3.67;;;;;;;;;;513650;28;900;-75
2022/02/05 02:30:52;;;;;;;7.90;3.70;;;;;;;;;;513523;28;876;-74
2022/02/05 02:31:13;;;;;;;8.57;3.97;;;;;;;;;;513431;28;743;-74
2022/02/05 02:31:34;;;;;;;8.57;3.60;;;;;;;;;;511708;29;1251;-75
2022/02/05 02:31:51;;;;;;;7.97;3.50;;;;;;;;;;512748;28;833;-75
2022/02/05 02:32:06;;;;;;;9.95;3.83;;;;;;;;;;511680;29;1479;-75
2022/02/05 02:32:22;;;;;;;10.32;3.97;;;;;;;;;;511761;29;1296;-75
2022/02/05 02:32:41;;;;;;;9.23;4.23;;;;;;;;;;511694;29;789;-75
2022/02/05 02:33:06;;;;;;;8.43;4.03;;;;;;;;;;511691;29;935;-75
2022/02/05 02:33:31;;;;;;;8.25;3.67;;;;;;;;;;511823;29;848;-75
2022/02/05 02:33:51;;;;;;;7.93;3.60;;;;;;;;;;511461;28;1387;-75
2022/02/05 02:34:10;;;;;;;8.98;3.60;;;;;;;;;;512887;28;794;-75
2022/02/05 02:34:30;;;;;;;7.65;3.70;;;;;;;;;;513331;28;750;-75
2022/02/05 02:34:50;;;;;;;8.93;3.75;;;;;;;;;;513676;28;806;-75
2022/02/05 02:35:11;;;;;;;8.13;3.55;;;;;;;;;;510864;29;1301;-75
2022/02/05 02:35:29;;;;;;;7.10;3.67;;;;;;;;;;509705;29;1483;-75
2022/02/05 02:35:49;;;;;;;7.88;3.72;;;;;;;;;;510863;28;809;-75
2022/02/05 02:36:12;;;;;;;10.30;3.70;;;;;;;;;;511349;29;832;-75
2022/02/05 02:36:35;;;;;;;9.18;3.50;;;;;;;;;;511672;29;829;-75
2022/02/05 02:36:58;;;;;;;8.65;3.60;;;;;;;;;;511797;29;887;-75
2022/02/05 02:37:19;;;;;;;8.40;3.72;;;;;;;;;;511839;28;1355;-75
2022/02/05 02:37:45;;;;;;;7.45;3.60;;;;;;;;;;513758;28;870;-75
2022/02/05 02:38:07;;;;;;;8.88;3.80;;;;;;;;;;513518;28;832;-75
2022/02/05 02:38:32;;;;;;;8.15;3.70;;;;;;;;;;513841;28;1229;-75
2022/02/05 02:38:51;;;;;;;9.13;3.42;;;;;;;;;;511415;29;1397;-75
2022/02/05 02:39:11;;;;;;;10.45;3.78;;;;;;;;;;511644;29;988;-75
2022/02/05 02:39:34;;;;;;;9.07;3.97;;;;;;;;;;512866;28;853;-75
2022/02/05 02:40:04;;;;;;;7.22;3.78;;;;;;;;;;511591;29;2362;-75
2022/02/05 02:40:39;;;;;;;7.53;3.58;;;;;;;;;;510782;29;901;-75
2022/02/05 02:41:06;;;;;;;6.80;3.40;;;;;;;;;;510602;28;1244;-74
2022/02/05 02:41:33;;;;;;;8.82;3.78;;;;;;;;;;510724;29;1300;-75
2022/02/05 02:41:54;;;;;;;11.43;3.83;;;;;;;;;;511338;29;1352;-75
2022/02/05 02:42:11;;;;;;;9.77;3.88;;;;;;;;;;512281;28;1483;-75
2022/02/05 02:42:27;;;;;;;8.55;3.80;;;;;;;;;;513550;28;915;-75
2022/02/05 02:42:46;;;;;;;8.00;3.70;;;;;;;;;;512017;28;1189;-75
2022/02/05 02:43:07;;;;;;;7.75;3.88;;;;;;;;;;511522;29;858;-75
2022/02/05 02:43:26;;;;;;;7.35;3.90;;;;;;;;;;511840;29;1379;-75
2022/02/05 02:43:42;;;;;;;7.95;3.80;;;;;;;;;;512649;28;1232;-75
2022/02/05 02:43:57;;;;;;;8.50;3.83;;;;;;;;;;513856;28;716;-75
2022/02/05 02:44:13;;;;;;;8.77;4.00;;;;;;;;;;513796;28;856;-75
2022/02/05 02:44:28;;;;;;;9.80;4.00;;;;;;;;;;513024;28;811;-75
2022/02/05 02:44:43;;;;;;;9.70;4.00;;;;;;;;;;513793;28;1210;-75
2022/02/05 02:44:59;;;;;;;8.57;3.97;;;;;;;;;;513156;28;773;-75
2022/02/05 02:45:14;;;;;;;7.37;3.73;;;;;;;;;;513774;28;808;-75
2022/02/05 02:45:29;;;;;;;6.53;3.73;;;;;;;;;;511873;28;1174;-75
2022/02/05 02:45:46;;;;;;;7.30;4.10;;;;;;;;;;513273;28;797;-75
2022/02/05 02:46:01;;;;;;;8.43;4.13;;;;;;;;;;513691;28;872;-75
2022/02/05 02:46:16;;;;;;;8.48;3.85;;;;;;;;;;513259;28;923;-75
2022/02/05 02:46:31;;;;;;;9.47;4.07;;;;;;;;;;511533;28;1239;-76
2022/02/05 02:46:47;;;;;;;10.67;4.17;;;;;;;;;;513735;28;983;-75
2022/02/05 02:47:03;;;;;;;10.65;4.07;;;;;;;;;;513718;28;761;-75
2022/02/05 02:47:18;;;;;;;9.00;4.17;;;;;;;;;;514085;28;907;-75
2022/02/05 02:47:34;;;;;;;8.52;4.10;;;;;;;;;;515801;28;820;-75
2022/02/05 02:47:49;;;;;;;9.33;3.97;;;;;;;;;;513681;28;1412;-75
2022/02/05 02:48:04;;;;;;;9.25;3.97;;;;;;;;;;513417;28;820;-75
2022/02/05 02:48:19;;;;;;;9.27;4.10;;;;;;;;;;512124;28;1923;-75
2022/02/05 02:48:36;;;;;;;7.77;4.00;;;;;;;;;;511681;29;1451;-74
2022/02/05 02:48:51;;;;;;;8.07;4.07;;;;;;;;;;512100;29;801;-74
2022/02/05 02:49:08;;;;;;;9.40;4.03;;;;;;;;;;511842;28;1129;-74
2022/02/05 02:50:04;;;;;;;10.15;4.20;;;;;;;;;;509553;29;640;-75
2022/02/05 02:56:22;;;;;;;10.88;4.30;;;;;;;;;;511803;29;860;-74
2022/02/05 02:56:50;;;;;;;7.70;3.80;;;;;;;;;;514266;28;649;-75
2022/02/05 02:57:29;;;;;;;9.32;4.20;;;;;;;;;;514219;28;836;-75
2022/02/05 02:57:52;;;;;;;9.68;4.20;;;;;;;;;;514684;28;1392;-75
2022/02/05 02:58:09;;;;;;;8.32;4.07;;;;;;;;;;514133;28;774;-75
2022/02/05 02:58:29;;;;;;;8.90;4.05;;;;;;;;;;514098;28;926;-75
2022/02/05 02:58:44;;;;;;;7.78;4.15;;;;;;;;;;513768;28;860;-75
2022/02/05 02:59:06;;;;;;;9.20;4.40;;;;;;;;;;513504;28;671;-75
2022/02/05 02:59:26;;;;;;;9.55;4.38;;;;;;;;;;514057;28;884;-76
2022/02/05 02:59:51;;;;;;;8.55;4.30;;;;;;;;;;513863;28;852;-75
2022/02/05 03:00:10;;;;;;;8.85;4.05;;;;;;;;;;515228;28;1370;-75
2022/02/05 03:00:26;;;;;;;9.88;4.43;;;;;;;;;;515978;28;813;-75
2022/02/05 03:00:42;;;;;;;8.38;4.38;;;;;;;;;;516079;28;757;-75
2022/02/05 03:00:59;;;;;;;7.53;3.95;;;;;;;;;;515419;28;1363;-76
2022/02/05 03:01:18;;;;;;;8.23;4.20;;;;;;;;;;515967;28;1430;-75
2022/02/05 03:01:37;;;;;;;9.35;4.00;;;;;;;;;;513970;28;845;-75
2022/02/05 03:01:59;;;;;;;9.05;4.13;;;;;;;;;;514099;28;785;-75
2022/02/05 03:02:17;;;;;;;8.40;4.40;;;;;;;;;;515781;28;1220;-75
2022/02/05 03:02:33;;;;;;;8.05;4.43;;;;;;;;;;513873;28;1361;-75
2022/02/05 03:02:48;;;;;;;8.90;4.60;;;;;;;;;;513599;28;1275;-75
2022/02/05 03:03:03;;;;;;;8.40;4.57;;;;;;;;;;511794;28;1153;-75
2022/02/05 03:03:19;;;;;;;7.07;4.15;;;;;;;;;;507388;28;970;-75
2022/02/05 03:03:34;;;;;;;7.97;4.27;;;;;;;;;;511128;29;1431;-75
2022/02/05 03:03:49;;;;;;;10.27;4.57;;;;;;;;;;511784;29;813;-75
2022/02/05 03:04:04;;;;;;;9.80;4.40;;;;;;;;;;509924;28;1158;-76
2022/02/05 03:04:20;;;;;;;8.23;4.30;;;;;;;;;;512019;28;952;-75
2022/02/05 03:04:36;;;;;;;8.90;4.40;;;;;;;;;;512059;29;1311;-75
2022/02/05 03:04:54;;;;;;;9.02;4.47;;;;;;;;;;512169;28;888;-75
2022/02/05 03:05:10;;;;;;;8.13;4.30;;;;;;;;;;513248;28;821;-75
2022/02/05 03:05:25;;;;;;;9.70;4.57;;;;;;;;;;511621;29;1266;-75
2022/02/05 03:05:40;;;;;;;10.48;4.70;;;;;;;;;;509192;29;1154;-75
2022/02/05 03:05:56;;;;;;;10.13;4.57;;;;;;;;;;510144;29;869;-75
2022/02/05 03:06:12;;;;;;;9.40;4.37;;;;;;;;;;511449;29;905;-75
2022/02/05 03:06:27;;;;;;;8.50;4.43;;;;;;;;;;512316;28;714;-75
2022/02/05 03:06:42;;;;;;;8.45;4.68;;;;;;;;;;511296;29;1190;-75
2022/02/05 03:06:58;;;;;;;8.17;4.43;;;;;;;;;;511467;29;802;-75
2022/02/05 03:07:13;;;;;;;7.60;4.40;;;;;;;;;;511569;28;837;-75
2022/02/05 03:07:28;;;;;;;7.97;4.60;;;;;;;;;;513411;28;1286;-75
2022/02/05 03:07:44;;;;;;;7.63;4.40;;;;;;;;;;511667;29;1221;-75
2022/02/05 03:07:59;;;;;;;8.43;4.50;;;;;;;;;;511626;29;1245;-75
2022/02/05 03:08:14;;;;;;;11.32;4.75;;;;;;;;;;509574;29;1922;-75
2022/02/05 03:08:30;;;;;;;10.40;4.70;;;;;;;;;;510076;29;853;-75
2022/02/05 03:08:48;;;;;;;9.23;4.63;;;;;;;;;;509800;29;1179;-75
2022/02/05 03:09:03;;;;;;;9.30;4.55;;;;;;;;;;509728;29;789;-75
2022/02/05 03:09:18;;;;;;;9.48;4.60;;;;;;;;;;509675;29;805;-75
2022/02/05 03:09:34;;;;;;;9.67;4.50;;;;;;;;;;508445;29;1282;-76
2022/02/05 03:09:50;;;;;;;10.60;4.77;;;;;;;;;;510442;29;837;-75
2022/02/05 03:10:06;;;;;;;9.15;4.57;;;;;;;;;;510017;29;1245;-75
2022/02/05 03:10:22;;;;;;;9.45;4.50;;;;;;;;;;512054;29;857;-76
2022/02/05 03:10:37;;;;;;;10.43;4.80;;;;;;;;;;510713;29;1370;-76
2022/02/05 03:10:52;;;;;;;10.43;4.80;;;;;;;;;;510096;29;880;-75
2022/02/05 03:11:08;;;;;;;10.10;4.70;;;;;;;;;;510312;29;849;-75
2022/02/05 03:11:23;;;;;;;8.68;4.50;;;;;;;;;;510227;29;829;-75
2022/02/05 03:11:38;;;;;;;9.33;4.53;;;;;;;;;;511747;29;781;-75
2022/02/05 03:11:54;;;;;;;9.93;4.90;;;;;;;;;;510328;29;1440;-75
2022/02/05 03:12:09;;;;;;;9.02;4.70;;;;;;;;;;511965;29;832;-75
2022/02/05 03:12:24;;;;;;;8.67;4.57;;;;;;;;;;510087;29;1241;-76
2022/02/05 03:12:42;;;;;;;9.27;4.57;;;;;;;;;;510076;29;1151;-75
2022/02/05 03:12:57;;;;;;;10.60;4.50;;;;;;;;;;509714;29;1265;-75
2022/02/05 03:13:13;;;;;;;10.47;4.60;;;;;;;;;;509744;29;1246;-76
2022/02/05 03:13:28;;;;;;;10.93;4.80;;;;;;;;;;509479;29;1296;-75
2022/02/05 03:13:43;;;;;;;9.97;4.57;;;;;;;;;;510059;29;809;-75
2022/02/05 03:13:59;;;;;;;9.00;4.50;;;;;;;;;;509916;29;1216;-75
2022/02/05 03:14:14;;;;;;;9.00;4.75;;;;;;;;;;510307;29;794;-76
2022/02/05 03:14:29;;;;;;;9.27;4.73;;;;;;;;;;512165;28;1296;-75
2022/02/05 03:14:45;;;;;;;9.80;4.60;;;;;;;;;;513853;28;841;-75
2022/02/05 03:15:03;;;;;;;9.40;4.72;;;;;;;;;;513522;28;1006;-76
2022/02/05 03:15:20;;;;;;;10.40;4.82;;;;;;;;;;512240;28;1344;-75
2022/02/05 03:15:40;;;;;;;10.90;4.85;;;;;;;;;;511734;29;833;-75
2022/02/05 03:15:55;;;;;;;9.45;4.65;;;;;;;;;;513259;28;869;-75
2022/02/05 03:16:20;;;;;;;10.38;4.57;;;;;;;;;;513996;28;738;-75
2022/02/05 03:16:37;;;;;;;9.82;4.75;;;;;;;;;;516064;28;978;-76
2022/02/05 03:17:01;;;;;;;10.10;4.70;;;;;;;;;;513847;28;1281;-76
2022/02/05 03:17:25;;;;;;;9.75;4.95;;;;;;;;;;515754;28;813;-75
2022/02/05 03:17:54;;;;;;;8.15;4.57;;;;;;;;;;515636;28;901;-75
2022/02/05 03:18:15;;;;;;;10.57;4.97;;;;;;;;;;516309;28;955;-75
2022/02/05 03:19:16;;;;;;;9.38;4.72;;;;;;;;;;516196;28;904;-75
2022/02/05 03:19:21;;;;;;;8.20;4.87;;;;;;;;;;513188;28;1023;-75
2022/02/05 03:19:36;;;;;;;8.70;4.80;;;;;;;;;;515437;28;1266;-75
2022/02/05 03:19:55;;;;;;;9.20;4.78;;;;;;;;;;513336;28;1218;-75
2022/02/05 03:20:10;;;;;;;11.20;4.80;;;;;;;;;;513564;28;880;-75
2022/02/05 03:20:25;;;;;;;11.32;4.90;;;;;;;;;;513990;28;794;-75
2022/02/05 03:20:41;;;;;;;9.83;5.27;;;;;;;;;;513619;28;733;-76
2022/02/05 03:20:56;;;;;;;10.13;5.25;;;;;;;;;;511821;29;1272;-75
2022/02/05 03:21:12;;;;;;;9.57;5.10;;;;;;;;;;511773;29;980;-75
2022/02/05 03:21:27;;;;;;;7.87;4.83;;;;;;;;;;512539;28;1027;-75
2022/02/05 03:21:43;;;;;;;8.75;4.80;;;;;;;;;;512374;28;1302;-75
2022/02/05 03:21:58;;;;;;;8.98;5.00;;;;;;;;;;513575;28;991;-75
2022/02/05 03:22:18;;;;;;;8.23;4.93;;;;;;;;;;511954;29;1142;-75
2022/02/05 03:22:33;;;;;;;10.88;5.20;;;;;;;;;;512023;29;864;-75